sensor_id;sensor_type;location;lat;lon;timestamp;P1;durP1;ratioP1;P2;durP2;ratioP2
35324;SDS011;35135;47.510;19.036;2023-03-14T00:01:23;5.10;;;3.00;;
35324;SDS011;35135;47.510;19.036;2023-03-14T00:03:49;4.03;;;2.78;;
35324;SDS011;35135;47.510;19.036;2023-03-14T00:06:15;3.80;;;3.13;;
35324;SDS011;35135;47.510;19.036;2023-03-14T00:08:42;5.25;;;3.47;;
35324;SDS011;35135;47.510;19.036;2023-03-14T00:11:10;4.47;;;3.50;;
35324;SDS011;35135;47.510;19.036;2023-03-14T00:13:37;4.15;;;3.15;;
35324;SDS011;35135;47.510;19.036;2023-03-14T00:16:10;4.45;;;3.00;;
35324;SDS011;35135;47.510;19.036;2023-03-14T00:18:37;3.78;;;2.90;;
35324;SDS011;35135;47.510;19.036;2023-03-14T00:21:04;5.70;;;2.92;;
35324;SDS011;35135;47.510;19.036;2023-03-14T00:23:31;3.60;;;2.83;;
35324;SDS011;35135;47.510;19.036;2023-03-14T00:26:06;4.88;;;3.10;;
35324;SDS011;35135;47.510;19.036;2023-03-14T00:28:37;4.93;;;3.13;;
35324;SDS011;35135;47.510;19.036;2023-03-14T00:31:04;4.00;;;2.85;;
35324;SDS011;35135;47.510;19.036;2023-03-14T00:33:31;4.28;;;3.15;;
35324;SDS011;35135;47.510;19.036;2023-03-14T00:35:58;3.72;;;3.00;;
35324;SDS011;35135;47.510;19.036;2023-03-14T00:38:25;3.70;;;2.90;;
35324;SDS011;35135;47.510;19.036;2023-03-14T00:40:51;3.75;;;2.90;;
35324;SDS011;35135;47.510;19.036;2023-03-14T00:43:18;3.33;;;2.63;;
35324;SDS011;35135;47.510;19.036;2023-03-14T00:45:46;3.70;;;2.60;;
35324;SDS011;35135;47.510;19.036;2023-03-14T00:48:16;3.83;;;2.88;;
35324;SDS011;35135;47.510;19.036;2023-03-14T00:50:43;3.88;;;2.83;;
35324;SDS011;35135;47.510;19.036;2023-03-14T00:53:08;4.30;;;2.97;;
35324;SDS011;35135;47.510;19.036;2023-03-14T00:55:37;4.07;;;2.67;;
35324;SDS011;35135;47.510;19.036;2023-03-14T00:58:04;4.22;;;2.90;;
35324;SDS011;35135;47.510;19.036;2023-03-14T01:00:30;4.80;;;3.53;;
35324;SDS011;35135;47.510;19.036;2023-03-14T01:02:56;5.65;;;3.40;;
35324;SDS011;35135;47.510;19.036;2023-03-14T01:05:22;3.95;;;3.00;;
35324;SDS011;35135;47.510;19.036;2023-03-14T01:07:48;3.60;;;2.97;;
35324;SDS011;35135;47.510;19.036;2023-03-14T01:10:14;3.38;;;2.78;;
35324;SDS011;35135;47.510;19.036;2023-03-14T01:12:39;3.75;;;3.10;;
35324;SDS011;35135;47.510;19.036;2023-03-14T01:15:05;3.63;;;3.00;;
35324;SDS011;35135;47.510;19.036;2023-03-14T01:17:31;3.70;;;3.10;;
35324;SDS011;35135;47.510;19.036;2023-03-14T01:19:57;4.00;;;2.72;;
35324;SDS011;35135;47.510;19.036;2023-03-14T01:22:24;4.53;;;2.90;;
35324;SDS011;35135;47.510;19.036;2023-03-14T01:24:49;3.75;;;2.80;;
35324;SDS011;35135;47.510;19.036;2023-03-14T01:27:15;5.13;;;3.20;;
35324;SDS011;35135;47.510;19.036;2023-03-14T01:29:40;5.57;;;3.25;;
35324;SDS011;35135;47.510;19.036;2023-03-14T01:32:06;3.60;;;3.20;;
35324;SDS011;35135;47.510;19.036;2023-03-14T01:34:32;4.60;;;3.10;;
35324;SDS011;35135;47.510;19.036;2023-03-14T01:36:57;3.45;;;2.90;;
35324;SDS011;35135;47.510;19.036;2023-03-14T01:39:23;4.25;;;3.03;;
35324;SDS011;35135;47.510;19.036;2023-03-14T01:41:49;3.70;;;2.90;;
35324;SDS011;35135;47.510;19.036;2023-03-14T01:44:14;4.68;;;3.47;;
35324;SDS011;35135;47.510;19.036;2023-03-14T01:46:41;5.30;;;3.15;;
35324;SDS011;35135;47.510;19.036;2023-03-14T01:49:13;3.60;;;2.67;;
35324;SDS011;35135;47.510;19.036;2023-03-14T01:51:59;7.57;;;3.45;;
35324;SDS011;35135;47.510;19.036;2023-03-14T01:54:35;4.40;;;2.92;;
35324;SDS011;35135;47.510;19.036;2023-03-14T01:59:39;5.00;;;3.30;;
35324;SDS011;35135;47.510;19.036;2023-03-14T02:02:07;4.25;;;3.35;;
35324;SDS011;35135;47.510;19.036;2023-03-14T02:04:36;3.83;;;3.00;;
35324;SDS011;35135;47.510;19.036;2023-03-14T02:09:47;5.10;;;3.38;;
35324;SDS011;35135;47.510;19.036;2023-03-14T02:12:14;3.65;;;2.95;;
35324;SDS011;35135;47.510;19.036;2023-03-14T02:14:41;6.43;;;3.67;;
35324;SDS011;35135;47.510;19.036;2023-03-14T02:17:12;5.22;;;3.60;;
35324;SDS011;35135;47.510;19.036;2023-03-14T02:22:13;3.77;;;3.07;;
35324;SDS011;35135;47.510;19.036;2023-03-14T02:24:49;4.00;;;3.40;;
35324;SDS011;35135;47.510;19.036;2023-03-14T02:27:22;3.95;;;3.38;;
35324;SDS011;35135;47.510;19.036;2023-03-14T02:29:55;4.20;;;3.25;;
35324;SDS011;35135;47.510;19.036;2023-03-14T02:32:29;3.80;;;3.20;;
35324;SDS011;35135;47.510;19.036;2023-03-14T02:34:58;3.78;;;3.00;;
35324;SDS011;35135;47.510;19.036;2023-03-14T02:37:31;3.47;;;2.97;;
35324;SDS011;35135;47.510;19.036;2023-03-14T02:40:19;4.45;;;3.78;;
35324;SDS011;35135;47.510;19.036;2023-03-14T02:42:45;3.20;;;2.70;;
35324;SDS011;35135;47.510;19.036;2023-03-14T02:47:37;4.18;;;2.85;;
35324;SDS011;35135;47.510;19.036;2023-03-14T02:50:09;4.75;;;3.63;;
35324;SDS011;35135;47.510;19.036;2023-03-14T02:52:37;3.95;;;3.55;;
35324;SDS011;35135;47.510;19.036;2023-03-14T02:55:03;3.50;;;3.10;;
35324;SDS011;35135;47.510;19.036;2023-03-14T02:57:29;4.13;;;3.67;;
35324;SDS011;35135;47.510;19.036;2023-03-14T02:59:58;4.68;;;3.42;;
35324;SDS011;35135;47.510;19.036;2023-03-14T03:02:25;4.65;;;3.72;;
35324;SDS011;35135;47.510;19.036;2023-03-14T03:04:51;3.90;;;3.50;;
35324;SDS011;35135;47.510;19.036;2023-03-14T03:07:17;4.97;;;3.30;;
35324;SDS011;35135;47.510;19.036;2023-03-14T03:09:44;3.90;;;3.08;;
35324;SDS011;35135;47.510;19.036;2023-03-14T03:12:09;4.05;;;3.40;;
35324;SDS011;35135;47.510;19.036;2023-03-14T03:14:35;4.68;;;3.50;;
35324;SDS011;35135;47.510;19.036;2023-03-14T03:17:02;5.38;;;3.78;;
35324;SDS011;35135;47.510;19.036;2023-03-14T03:19:28;3.78;;;3.00;;
35324;SDS011;35135;47.510;19.036;2023-03-14T03:21:54;3.80;;;3.40;;
35324;SDS011;35135;47.510;19.036;2023-03-14T03:24:20;4.38;;;3.55;;
35324;SDS011;35135;47.510;19.036;2023-03-14T03:26:46;5.03;;;3.63;;
35324;SDS011;35135;47.510;19.036;2023-03-14T03:29:11;4.30;;;3.33;;
35324;SDS011;35135;47.510;19.036;2023-03-14T03:31:38;4.20;;;3.50;;
35324;SDS011;35135;47.510;19.036;2023-03-14T03:34:04;4.53;;;4.13;;
35324;SDS011;35135;47.510;19.036;2023-03-14T03:36:29;3.80;;;3.05;;
35324;SDS011;35135;47.510;19.036;2023-03-14T03:38:56;4.00;;;3.40;;
35324;SDS011;35135;47.510;19.036;2023-03-14T03:41:21;3.75;;;3.33;;
35324;SDS011;35135;47.510;19.036;2023-03-14T03:43:47;3.70;;;3.22;;
35324;SDS011;35135;47.510;19.036;2023-03-14T03:46:13;4.00;;;3.60;;
35324;SDS011;35135;47.510;19.036;2023-03-14T03:48:38;4.28;;;3.40;;
35324;SDS011;35135;47.510;19.036;2023-03-14T03:51:04;4.00;;;3.40;;
35324;SDS011;35135;47.510;19.036;2023-03-14T03:53:30;4.15;;;3.65;;
35324;SDS011;35135;47.510;19.036;2023-03-14T03:55:56;4.00;;;3.50;;
35324;SDS011;35135;47.510;19.036;2023-03-14T03:58:21;4.43;;;3.50;;
35324;SDS011;35135;47.510;19.036;2023-03-14T04:00:47;3.67;;;3.30;;
35324;SDS011;35135;47.510;19.036;2023-03-14T04:03:13;5.25;;;3.70;;
35324;SDS011;35135;47.510;19.036;2023-03-14T04:05:39;4.43;;;3.80;;
35324;SDS011;35135;47.510;19.036;2023-03-14T04:08:04;3.53;;;3.08;;
35324;SDS011;35135;47.510;19.036;2023-03-14T04:10:33;4.25;;;3.42;;
35324;SDS011;35135;47.510;19.036;2023-03-14T04:12:59;5.22;;;3.83;;
35324;SDS011;35135;47.510;19.036;2023-03-14T04:15:25;4.05;;;3.65;;
35324;SDS011;35135;47.510;19.036;2023-03-14T04:17:51;4.00;;;3.38;;
35324;SDS011;35135;47.510;19.036;2023-03-14T04:20:21;4.38;;;3.67;;
35324;SDS011;35135;47.510;19.036;2023-03-14T04:22:46;4.57;;;3.40;;
35324;SDS011;35135;47.510;19.036;2023-03-14T04:25:12;3.63;;;3.10;;
35324;SDS011;35135;47.510;19.036;2023-03-14T04:27:38;3.53;;;3.13;;
35324;SDS011;35135;47.510;19.036;2023-03-14T04:30:03;4.28;;;3.47;;
35324;SDS011;35135;47.510;19.036;2023-03-14T04:32:29;4.10;;;3.47;;
35324;SDS011;35135;47.510;19.036;2023-03-14T04:34:55;4.10;;;3.67;;
35324;SDS011;35135;47.510;19.036;2023-03-14T04:37:20;3.90;;;3.30;;
35324;SDS011;35135;47.510;19.036;2023-03-14T04:39:46;4.50;;;3.10;;
35324;SDS011;35135;47.510;19.036;2023-03-14T04:42:12;4.97;;;3.50;;
35324;SDS011;35135;47.510;19.036;2023-03-14T04:44:37;3.78;;;3.38;;
35324;SDS011;35135;47.510;19.036;2023-03-14T04:47:03;4.80;;;3.95;;
35324;SDS011;35135;47.510;19.036;2023-03-14T04:49:29;3.72;;;3.33;;
35324;SDS011;35135;47.510;19.036;2023-03-14T04:51:54;4.75;;;3.78;;
35324;SDS011;35135;47.510;19.036;2023-03-14T04:54:20;4.25;;;3.67;;
35324;SDS011;35135;47.510;19.036;2023-03-14T04:56:46;4.25;;;3.80;;
35324;SDS011;35135;47.510;19.036;2023-03-14T04:59:11;5.13;;;3.63;;
35324;SDS011;35135;47.510;19.036;2023-03-14T05:01:37;4.22;;;3.80;;
35324;SDS011;35135;47.510;19.036;2023-03-14T05:04:03;3.90;;;3.50;;
35324;SDS011;35135;47.510;19.036;2023-03-14T05:06:28;5.13;;;3.60;;
35324;SDS011;35135;47.510;19.036;2023-03-14T05:08:54;4.25;;;3.78;;
35324;SDS011;35135;47.510;19.036;2023-03-14T05:11:20;5.57;;;3.80;;
35324;SDS011;35135;47.510;19.036;2023-03-14T05:13:45;4.20;;;3.45;;
35324;SDS011;35135;47.510;19.036;2023-03-14T05:16:11;5.63;;;4.15;;
35324;SDS011;35135;47.510;19.036;2023-03-14T05:18:37;4.55;;;3.53;;
35324;SDS011;35135;47.510;19.036;2023-03-14T05:21:03;5.45;;;3.78;;
35324;SDS011;35135;47.510;19.036;2023-03-14T05:23:29;6.10;;;4.05;;
35324;SDS011;35135;47.510;19.036;2023-03-14T05:25:55;4.45;;;3.20;;
35324;SDS011;35135;47.510;19.036;2023-03-14T05:28:21;5.32;;;3.78;;
35324;SDS011;35135;47.510;19.036;2023-03-14T05:30:47;5.30;;;3.58;;
35324;SDS011;35135;47.510;19.036;2023-03-14T05:33:12;4.63;;;3.63;;
35324;SDS011;35135;47.510;19.036;2023-03-14T05:35:38;4.90;;;3.97;;
35324;SDS011;35135;47.510;19.036;2023-03-14T05:38:04;4.80;;;3.80;;
35324;SDS011;35135;47.510;19.036;2023-03-14T05:40:30;5.13;;;3.30;;
35324;SDS011;35135;47.510;19.036;2023-03-14T05:42:55;5.63;;;3.72;;
35324;SDS011;35135;47.510;19.036;2023-03-14T05:45:21;7.00;;;3.72;;
35324;SDS011;35135;47.510;19.036;2023-03-14T05:47:47;5.97;;;3.40;;
35324;SDS011;35135;47.510;19.036;2023-03-14T05:50:12;5.60;;;3.97;;
35324;SDS011;35135;47.510;19.036;2023-03-14T05:52:38;5.00;;;4.00;;
35324;SDS011;35135;47.510;19.036;2023-03-14T05:55:04;5.25;;;4.10;;
35324;SDS011;35135;47.510;19.036;2023-03-14T05:57:30;6.38;;;3.97;;
35324;SDS011;35135;47.510;19.036;2023-03-14T05:59:56;4.68;;;3.80;;
35324;SDS011;35135;47.510;19.036;2023-03-14T06:02:21;5.35;;;4.15;;
35324;SDS011;35135;47.510;19.036;2023-03-14T06:04:47;4.40;;;3.88;;
35324;SDS011;35135;47.510;19.036;2023-03-14T06:07:13;4.63;;;3.55;;
35324;SDS011;35135;47.510;19.036;2023-03-14T06:09:38;5.55;;;3.70;;
35324;SDS011;35135;47.510;19.036;2023-03-14T06:12:05;5.07;;;3.75;;
35324;SDS011;35135;47.510;19.036;2023-03-14T06:14:30;5.40;;;3.92;;
35324;SDS011;35135;47.510;19.036;2023-03-14T06:16:56;6.63;;;4.00;;
35324;SDS011;35135;47.510;19.036;2023-03-14T06:19:24;5.47;;;3.70;;
35324;SDS011;35135;47.510;19.036;2023-03-14T06:21:50;6.82;;;4.53;;
35324;SDS011;35135;47.510;19.036;2023-03-14T06:24:17;28.77;;;24.55;;
35324;SDS011;35135;47.510;19.036;2023-03-14T06:26:43;21.90;;;12.75;;
35324;SDS011;35135;47.510;19.036;2023-03-14T06:29:09;16.95;;;10.07;;
35324;SDS011;35135;47.510;19.036;2023-03-14T06:31:35;15.48;;;9.10;;
35324;SDS011;35135;47.510;19.036;2023-03-14T06:34:01;15.07;;;8.65;;
35324;SDS011;35135;47.510;19.036;2023-03-14T06:36:26;13.98;;;7.63;;
35324;SDS011;35135;47.510;19.036;2023-03-14T06:38:52;11.40;;;7.03;;
35324;SDS011;35135;47.510;19.036;2023-03-14T06:41:18;14.23;;;7.40;;
35324;SDS011;35135;47.510;19.036;2023-03-14T06:43:43;13.52;;;6.70;;
35324;SDS011;35135;47.510;19.036;2023-03-14T06:46:09;12.23;;;6.80;;
35324;SDS011;35135;47.510;19.036;2023-03-14T06:48:35;9.32;;;6.05;;
35324;SDS011;35135;47.510;19.036;2023-03-14T06:51:00;9.95;;;5.95;;
35324;SDS011;35135;47.510;19.036;2023-03-14T06:53:26;7.45;;;4.90;;
35324;SDS011;35135;47.510;19.036;2023-03-14T06:55:52;12.82;;;5.47;;
35324;SDS011;35135;47.510;19.036;2023-03-14T06:58:17;14.55;;;5.35;;
35324;SDS011;35135;47.510;19.036;2023-03-14T07:00:43;11.65;;;5.07;;
35324;SDS011;35135;47.510;19.036;2023-03-14T07:03:09;13.80;;;5.63;;
35324;SDS011;35135;47.510;19.036;2023-03-14T07:05:35;9.25;;;4.32;;
35324;SDS011;35135;47.510;19.036;2023-03-14T07:08:01;14.10;;;5.20;;
35324;SDS011;35135;47.510;19.036;2023-03-14T07:10:26;8.93;;;4.60;;
35324;SDS011;35135;47.510;19.036;2023-03-14T07:12:52;11.82;;;5.30;;
35324;SDS011;35135;47.510;19.036;2023-03-14T07:15:18;12.35;;;4.72;;
35324;SDS011;35135;47.510;19.036;2023-03-14T07:17:45;11.48;;;4.75;;
35324;SDS011;35135;47.510;19.036;2023-03-14T07:20:12;11.85;;;4.93;;
35324;SDS011;35135;47.510;19.036;2023-03-14T07:22:38;12.52;;;5.10;;
35324;SDS011;35135;47.510;19.036;2023-03-14T07:25:04;12.35;;;4.95;;
35324;SDS011;35135;47.510;19.036;2023-03-14T07:27:30;10.38;;;5.00;;
35324;SDS011;35135;47.510;19.036;2023-03-14T07:29:56;8.82;;;4.97;;
35324;SDS011;35135;47.510;19.036;2023-03-14T07:32:22;10.77;;;4.53;;
35324;SDS011;35135;47.510;19.036;2023-03-14T07:34:47;11.88;;;5.05;;
35324;SDS011;35135;47.510;19.036;2023-03-14T07:37:13;14.38;;;4.90;;
35324;SDS011;35135;47.510;19.036;2023-03-14T07:39:39;12.40;;;4.50;;
35324;SDS011;35135;47.510;19.036;2023-03-14T07:42:05;9.07;;;4.78;;
35324;SDS011;35135;47.510;19.036;2023-03-14T07:44:31;9.45;;;4.47;;
35324;SDS011;35135;47.510;19.036;2023-03-14T07:46:57;8.63;;;4.13;;
35324;SDS011;35135;47.510;19.036;2023-03-14T07:49:23;7.25;;;4.75;;
35324;SDS011;35135;47.510;19.036;2023-03-14T07:51:49;9.30;;;4.47;;
35324;SDS011;35135;47.510;19.036;2023-03-14T07:54:15;9.65;;;5.53;;
35324;SDS011;35135;47.510;19.036;2023-03-14T07:56:41;8.75;;;4.28;;
35324;SDS011;35135;47.510;19.036;2023-03-14T07:59:06;9.40;;;4.50;;
35324;SDS011;35135;47.510;19.036;2023-03-14T08:01:32;9.95;;;4.30;;
35324;SDS011;35135;47.510;19.036;2023-03-14T08:03:58;9.75;;;5.13;;
35324;SDS011;35135;47.510;19.036;2023-03-14T08:06:24;9.27;;;4.07;;
35324;SDS011;35135;47.510;19.036;2023-03-14T08:08:49;7.90;;;4.00;;
35324;SDS011;35135;47.510;19.036;2023-03-14T08:11:15;8.40;;;4.82;;
35324;SDS011;35135;47.510;19.036;2023-03-14T08:13:41;7.03;;;4.57;;
35324;SDS011;35135;47.510;19.036;2023-03-14T08:16:07;11.88;;;4.72;;
35324;SDS011;35135;47.510;19.036;2023-03-14T08:18:33;7.00;;;4.32;;
35324;SDS011;35135;47.510;19.036;2023-03-14T08:20:58;8.32;;;4.65;;
35324;SDS011;35135;47.510;19.036;2023-03-14T08:23:24;10.93;;;4.32;;
35324;SDS011;35135;47.510;19.036;2023-03-14T08:25:50;10.43;;;4.40;;
35324;SDS011;35135;47.510;19.036;2023-03-14T08:28:17;11.32;;;5.20;;
35324;SDS011;35135;47.510;19.036;2023-03-14T08:30:43;9.05;;;5.00;;
35324;SDS011;35135;47.510;19.036;2023-03-14T08:33:09;10.23;;;5.00;;
35324;SDS011;35135;47.510;19.036;2023-03-14T08:35:36;8.13;;;5.15;;
35324;SDS011;35135;47.510;19.036;2023-03-14T08:38:02;6.97;;;4.85;;
35324;SDS011;35135;47.510;19.036;2023-03-14T08:40:28;8.85;;;4.93;;
35324;SDS011;35135;47.510;19.036;2023-03-14T08:42:54;8.68;;;5.72;;
35324;SDS011;35135;47.510;19.036;2023-03-14T08:45:19;7.75;;;4.85;;
35324;SDS011;35135;47.510;19.036;2023-03-14T08:47:46;11.25;;;5.60;;
35324;SDS011;35135;47.510;19.036;2023-03-14T08:50:12;10.45;;;5.10;;
35324;SDS011;35135;47.510;19.036;2023-03-14T08:52:38;10.50;;;6.05;;
35324;SDS011;35135;47.510;19.036;2023-03-14T08:55:05;12.75;;;6.38;;
35324;SDS011;35135;47.510;19.036;2023-03-14T08:57:33;10.00;;;6.35;;
35324;SDS011;35135;47.510;19.036;2023-03-14T08:59:58;11.20;;;6.30;;
35324;SDS011;35135;47.510;19.036;2023-03-14T09:02:24;11.80;;;5.55;;
35324;SDS011;35135;47.510;19.036;2023-03-14T09:04:51;9.68;;;5.93;;
35324;SDS011;35135;47.510;19.036;2023-03-14T09:07:17;10.13;;;6.50;;
35324;SDS011;35135;47.510;19.036;2023-03-14T09:09:43;9.15;;;6.22;;
35324;SDS011;35135;47.510;19.036;2023-03-14T09:12:09;11.05;;;6.03;;
35324;SDS011;35135;47.510;19.036;2023-03-14T09:14:35;8.98;;;5.75;;
35324;SDS011;35135;47.510;19.036;2023-03-14T09:17:01;9.25;;;5.78;;
35324;SDS011;35135;47.510;19.036;2023-03-14T09:19:27;11.45;;;5.45;;
35324;SDS011;35135;47.510;19.036;2023-03-14T09:21:53;8.40;;;5.47;;
35324;SDS011;35135;47.510;19.036;2023-03-14T09:24:19;10.13;;;5.72;;
35324;SDS011;35135;47.510;19.036;2023-03-14T09:26:45;9.40;;;5.93;;
35324;SDS011;35135;47.510;19.036;2023-03-14T09:29:11;9.48;;;5.43;;
35324;SDS011;35135;47.510;19.036;2023-03-14T09:31:36;8.45;;;5.00;;
35324;SDS011;35135;47.510;19.036;2023-03-14T09:34:02;7.60;;;5.25;;
35324;SDS011;35135;47.510;19.036;2023-03-14T09:36:28;12.15;;;5.43;;
35324;SDS011;35135;47.510;19.036;2023-03-14T09:38:55;8.02;;;5.75;;
35324;SDS011;35135;47.510;19.036;2023-03-14T09:41:21;10.43;;;5.25;;
35324;SDS011;35135;47.510;19.036;2023-03-14T09:43:49;9.40;;;5.22;;
35324;SDS011;35135;47.510;19.036;2023-03-14T09:46:25;7.38;;;4.57;;
35324;SDS011;35135;47.510;19.036;2023-03-14T09:48:52;9.02;;;5.45;;
35324;SDS011;35135;47.510;19.036;2023-03-14T09:51:18;8.23;;;4.93;;
35324;SDS011;35135;47.510;19.036;2023-03-14T09:53:49;12.15;;;5.28;;
35324;SDS011;35135;47.510;19.036;2023-03-14T09:56:17;8.52;;;4.90;;
35324;SDS011;35135;47.510;19.036;2023-03-14T09:58:45;6.68;;;5.47;;
35324;SDS011;35135;47.510;19.036;2023-03-14T10:01:20;8.18;;;5.22;;
35324;SDS011;35135;47.510;19.036;2023-03-14T10:03:56;9.82;;;5.30;;
35324;SDS011;35135;47.510;19.036;2023-03-14T10:06:24;11.57;;;5.40;;
35324;SDS011;35135;47.510;19.036;2023-03-14T10:08:53;7.35;;;5.47;;
35324;SDS011;35135;47.510;19.036;2023-03-14T10:11:19;9.18;;;4.88;;
35324;SDS011;35135;47.510;19.036;2023-03-14T10:13:49;8.75;;;5.05;;
35324;SDS011;35135;47.510;19.036;2023-03-14T10:16:31;10.15;;;4.97;;
35324;SDS011;35135;47.510;19.036;2023-03-14T10:19:03;8.02;;;5.18;;
35324;SDS011;35135;47.510;19.036;2023-03-14T10:21:35;6.88;;;4.47;;
35324;SDS011;35135;47.510;19.036;2023-03-14T10:24:22;7.75;;;4.00;;
35324;SDS011;35135;47.510;19.036;2023-03-14T10:29:29;7.82;;;4.00;;
35324;SDS011;35135;47.510;19.036;2023-03-14T10:32:03;4.65;;;3.58;;
35324;SDS011;35135;47.510;19.036;2023-03-14T10:34:32;6.35;;;3.38;;
35324;SDS011;35135;47.510;19.036;2023-03-14T10:37:24;5.97;;;3.53;;
35324;SDS011;35135;47.510;19.036;2023-03-14T10:39:55;6.40;;;3.70;;
35324;SDS011;35135;47.510;19.036;2023-03-14T10:42:30;6.38;;;3.70;;
35324;SDS011;35135;47.510;19.036;2023-03-14T10:45:05;4.78;;;3.40;;
35324;SDS011;35135;47.510;19.036;2023-03-14T10:47:49;6.00;;;2.90;;
35324;SDS011;35135;47.510;19.036;2023-03-14T10:50:22;6.45;;;2.45;;
35324;SDS011;35135;47.510;19.036;2023-03-14T10:52:51;6.03;;;2.92;;
35324;SDS011;35135;47.510;19.036;2023-03-14T10:55:18;5.10;;;2.80;;
35324;SDS011;35135;47.510;19.036;2023-03-14T10:57:44;3.85;;;2.65;;
35324;SDS011;35135;47.510;19.036;2023-03-14T11:00:16;4.80;;;3.05;;
35324;SDS011;35135;47.510;19.036;2023-03-14T11:03:03;5.25;;;2.60;;
35324;SDS011;35135;47.510;19.036;2023-03-14T11:05:43;5.70;;;2.88;;
35324;SDS011;35135;47.510;19.036;2023-03-14T11:08:15;6.28;;;2.85;;
35324;SDS011;35135;47.510;19.036;2023-03-14T11:10:54;4.97;;;2.50;;
35324;SDS011;35135;47.510;19.036;2023-03-14T11:29:58;4.22;;;1.92;;
35324;SDS011;35135;47.510;19.036;2023-03-14T11:32:41;3.13;;;1.97;;
35324;SDS011;35135;47.510;19.036;2023-03-14T11:35:41;6.13;;;2.40;;
35324;SDS011;35135;47.510;19.036;2023-03-14T11:38:38;3.00;;;1.88;;
35324;SDS011;35135;47.510;19.036;2023-03-14T11:41:14;4.38;;;1.85;;
35324;SDS011;35135;47.510;19.036;2023-03-14T11:43:47;4.07;;;2.10;;
35324;SDS011;35135;47.510;19.036;2023-03-14T11:46:23;3.72;;;1.80;;
35324;SDS011;35135;47.510;19.036;2023-03-14T11:49:29;4.97;;;1.85;;
35324;SDS011;35135;47.510;19.036;2023-03-14T11:51:51;3.92;;;1.90;;
35324;SDS011;35135;47.510;19.036;2023-03-14T11:54:24;3.03;;;1.63;;
35324;SDS011;35135;47.510;19.036;2023-03-14T11:56:54;4.30;;;1.92;;
35324;SDS011;35135;47.510;19.036;2023-03-14T11:59:27;2.70;;;1.65;;
35324;SDS011;35135;47.510;19.036;2023-03-14T12:07:30;2.75;;;1.55;;
35324;SDS011;35135;47.510;19.036;2023-03-14T12:10:03;3.67;;;1.50;;
35324;SDS011;35135;47.510;19.036;2023-03-14T12:12:29;3.55;;;1.33;;
35324;SDS011;35135;47.510;19.036;2023-03-14T12:14:56;3.08;;;1.67;;
35324;SDS011;35135;47.510;19.036;2023-03-14T12:17:34;2.65;;;1.30;;
35324;SDS011;35135;47.510;19.036;2023-03-14T12:20:06;4.53;;;1.35;;
35324;SDS011;35135;47.510;19.036;2023-03-14T12:22:44;2.90;;;1.58;;
35324;SDS011;35135;47.510;19.036;2023-03-14T12:25:20;3.58;;;1.48;;
35324;SDS011;35135;47.510;19.036;2023-03-14T12:30:35;3.63;;;1.52;;
35324;SDS011;35135;47.510;19.036;2023-03-14T12:46:54;3.72;;;1.63;;
35324;SDS011;35135;47.510;19.036;2023-03-14T12:49:23;3.15;;;1.35;;
35324;SDS011;35135;47.510;19.036;2023-03-14T12:52:01;3.55;;;1.33;;
35324;SDS011;35135;47.510;19.036;2023-03-14T12:57:25;4.82;;;1.88;;
35324;SDS011;35135;47.510;19.036;2023-03-14T13:02:54;2.80;;;1.80;;
35324;SDS011;35135;47.510;19.036;2023-03-14T13:05:36;2.70;;;1.60;;
35324;SDS011;35135;47.510;19.036;2023-03-14T13:08:15;4.45;;;1.85;;
35324;SDS011;35135;47.510;19.036;2023-03-14T13:10:58;2.60;;;1.30;;
35324;SDS011;35135;47.510;19.036;2023-03-14T13:13:26;5.57;;;1.50;;
35324;SDS011;35135;47.510;19.036;2023-03-14T13:15:56;2.30;;;1.10;;
35324;SDS011;35135;47.510;19.036;2023-03-14T13:26:23;3.42;;;1.55;;
35324;SDS011;35135;47.510;19.036;2023-03-14T13:29:25;4.40;;;1.50;;
35324;SDS011;35135;47.510;19.036;2023-03-14T13:31:53;4.13;;;1.48;;
35324;SDS011;35135;47.510;19.036;2023-03-14T13:34:30;5.33;;;1.87;;
35324;SDS011;35135;47.510;19.036;2023-03-14T13:36:57;4.10;;;1.60;;
35324;SDS011;35135;47.510;19.036;2023-03-14T13:39:25;4.10;;;1.55;;
35324;SDS011;35135;47.510;19.036;2023-03-14T13:41:52;3.53;;;1.50;;
35324;SDS011;35135;47.510;19.036;2023-03-14T13:44:25;4.47;;;1.70;;
35324;SDS011;35135;47.510;19.036;2023-03-14T13:46:57;3.42;;;1.75;;
35324;SDS011;35135;47.510;19.036;2023-03-14T13:49:24;2.95;;;1.67;;
35324;SDS011;35135;47.510;19.036;2023-03-14T13:51:51;2.90;;;1.60;;
35324;SDS011;35135;47.510;19.036;2023-03-14T13:54:21;3.40;;;1.70;;
35324;SDS011;35135;47.510;19.036;2023-03-14T13:56:47;3.30;;;1.40;;
35324;SDS011;35135;47.510;19.036;2023-03-14T13:59:23;3.83;;;1.60;;
35324;SDS011;35135;47.510;19.036;2023-03-14T14:01:50;4.95;;;1.80;;
35324;SDS011;35135;47.510;19.036;2023-03-14T14:04:18;3.35;;;1.52;;
35324;SDS011;35135;47.510;19.036;2023-03-14T14:06:50;4.32;;;1.60;;
35324;SDS011;35135;47.510;19.036;2023-03-14T14:09:20;2.13;;;1.30;;
35324;SDS011;35135;47.510;19.036;2023-03-14T14:11:58;3.38;;;1.60;;
35324;SDS011;35135;47.510;19.036;2023-03-14T14:14:26;3.83;;;1.42;;
35324;SDS011;35135;47.510;19.036;2023-03-14T14:17:15;3.28;;;1.42;;
35324;SDS011;35135;47.510;19.036;2023-03-14T14:19:46;4.80;;;1.70;;
35324;SDS011;35135;47.510;19.036;2023-03-14T14:22:13;4.45;;;1.63;;
35324;SDS011;35135;47.510;19.036;2023-03-14T14:24:39;2.55;;;1.20;;
35324;SDS011;35135;47.510;19.036;2023-03-14T14:29:37;4.93;;;1.60;;
35324;SDS011;35135;47.510;19.036;2023-03-14T14:32:08;5.28;;;1.88;;
35324;SDS011;35135;47.510;19.036;2023-03-14T14:34:38;1.42;;;1.10;;
35324;SDS011;35135;47.510;19.036;2023-03-14T14:37:31;3.70;;;1.60;;
35324;SDS011;35135;47.510;19.036;2023-03-14T14:40:10;5.20;;;1.80;;
35324;SDS011;35135;47.510;19.036;2023-03-14T14:42:43;7.47;;;2.10;;
35324;SDS011;35135;47.510;19.036;2023-03-14T14:45:24;4.30;;;1.70;;
35324;SDS011;35135;47.510;19.036;2023-03-14T14:55:43;4.32;;;1.98;;
35324;SDS011;35135;47.510;19.036;2023-03-14T15:00:51;4.30;;;1.80;;
35324;SDS011;35135;47.510;19.036;2023-03-14T15:03:18;3.45;;;1.48;;
35324;SDS011;35135;47.510;19.036;2023-03-14T15:05:44;2.95;;;1.80;;
35324;SDS011;35135;47.510;19.036;2023-03-14T15:08:10;5.55;;;1.77;;
35324;SDS011;35135;47.510;19.036;2023-03-14T15:10:36;3.60;;;1.80;;
35324;SDS011;35135;47.510;19.036;2023-03-14T15:13:02;4.03;;;1.83;;
35324;SDS011;35135;47.510;19.036;2023-03-14T15:15:27;5.07;;;1.80;;
35324;SDS011;35135;47.510;19.036;2023-03-14T15:17:53;3.25;;;2.13;;
35324;SDS011;35135;47.510;19.036;2023-03-14T15:20:19;3.88;;;2.30;;
35324;SDS011;35135;47.510;19.036;2023-03-14T15:22:48;4.90;;;2.45;;
35324;SDS011;35135;47.510;19.036;2023-03-14T15:25:14;5.22;;;1.90;;
35324;SDS011;35135;47.510;19.036;2023-03-14T15:27:40;4.25;;;2.13;;
35324;SDS011;35135;47.510;19.036;2023-03-14T15:30:12;3.67;;;2.00;;
35324;SDS011;35135;47.510;19.036;2023-03-14T15:32:39;2.97;;;1.90;;
35324;SDS011;35135;47.510;19.036;2023-03-14T15:35:05;3.58;;;2.30;;
35324;SDS011;35135;47.510;19.036;2023-03-14T15:37:31;5.45;;;2.00;;
35324;SDS011;35135;47.510;19.036;2023-03-14T15:39:56;3.53;;;2.15;;
35324;SDS011;35135;47.510;19.036;2023-03-14T15:42:25;4.65;;;2.20;;
35324;SDS011;35135;47.510;19.036;2023-03-14T15:44:50;3.67;;;1.80;;
35324;SDS011;35135;47.510;19.036;2023-03-14T15:47:16;5.28;;;2.50;;
35324;SDS011;35135;47.510;19.036;2023-03-14T15:49:42;3.25;;;1.98;;
35324;SDS011;35135;47.510;19.036;2023-03-14T15:52:09;4.47;;;2.38;;
35324;SDS011;35135;47.510;19.036;2023-03-14T15:54:35;6.95;;;2.35;;
35324;SDS011;35135;47.510;19.036;2023-03-14T15:57:00;5.43;;;2.85;;
35324;SDS011;35135;47.510;19.036;2023-03-14T15:59:26;6.97;;;3.25;;